CBC9 weather

Burgeo (Calder Health Care Corp) Heliport
Burgeo, Newfoundland and Labrador, Canada

Public forecast

Using degrees Celsius for public forecast. Weather courtesy of forecast.io.

METAR (pilot weather report)

Closest report is Stephenville Airport, 67.1 nm (124.3 km) NNW. Retrieved 2019/07/21 18:00 UTC (15 minutes ago):

CYJT 211800Z 17004KT 120V190 15SM OVC025 21/17 A2960 RMK SC8 SLP025 DENSITY ALT 1200FT

TAF (pilot weather forecast)

Closest forecast is Stephenville Airport, 67.1 nm (124.3 km) NNW. Retrieved 2019/07/21 18:39 UTC (0 seconds ago):

TAF CYJT 211738Z 2118/2218 VRB03KT P6SM SCT020 BKN030 TEMPO 2118/2202 BKN015 OVC030 FM220200 VRB03KT P6SM OVC015 TEMPO 2202/2208 P6SM -SHRA FM220800 25005KT 6SM -DZ BR SCT008 OVC012 FM221100 25010KT 2SM -DZ BR OVC006 RMK NXT FCST BY 220000Z